createdAt,value
2017-12-21T00:00:18.885Z,0
2017-12-21T00:01:28.223Z,0
2017-12-21T00:02:36.756Z,0
2017-12-21T00:03:45.294Z,0
2017-12-21T00:04:54.363Z,0
2017-12-21T00:06:03.168Z,0
2017-12-21T00:07:11.704Z,0
2017-12-21T00:08:20.508Z,0
2017-12-21T00:09:29.573Z,0
2017-12-21T00:10:38.110Z,0
2017-12-21T00:11:47.174Z,0
2017-12-21T00:12:55.716Z,0
2017-12-21T00:14:04.568Z,0
2017-12-21T00:15:13.101Z,0
2017-12-21T00:16:21.701Z,0
2017-12-21T00:17:30.508Z,0
2017-12-21T00:18:39.042Z,0
2017-12-21T00:19:47.579Z,0
2017-12-21T00:20:56.117Z,0
2017-12-21T00:22:04.651Z,0
2017-12-21T00:23:13.453Z,0
2017-12-21T00:24:22.530Z,0
2017-12-21T00:25:31.383Z,0
2017-12-21T00:26:40.723Z,0
2017-12-21T00:27:49.803Z,0
2017-12-21T00:28:58.607Z,0
2017-12-21T00:30:07.143Z,0
2017-12-21T00:31:15.679Z,0
2017-12-21T00:32:24.212Z,0
2017-12-21T00:33:33.548Z,0
2017-12-21T00:34:42.083Z,0
2017-12-21T00:35:50.620Z,0
2017-12-21T00:36:59.227Z,0
2017-12-21T00:38:08.043Z,0
2017-12-21T00:39:16.568Z,0
2017-12-21T00:40:25.106Z,0
2017-12-21T00:41:33.914Z,0
2017-12-21T00:42:42.445Z,0
2017-12-21T00:43:51.522Z,0
2017-12-21T00:45:00.327Z,0
2017-12-21T00:46:09.394Z,0
2017-12-21T00:47:17.926Z,0
2017-12-21T00:48:26.512Z,0
2017-12-21T00:49:35.315Z,0
2017-12-21T00:50:44.118Z,0
2017-12-21T00:51:52.922Z,0
2017-12-21T00:53:01.992Z,0
2017-12-21T00:54:10.525Z,0
2017-12-21T00:55:19.596Z,0
2017-12-21T00:56:28.401Z,0
2017-12-21T00:57:37.203Z,0
2017-12-21T00:58:45.737Z,0
2017-12-21T00:59:54.320Z,0
2017-12-21T01:01:03.124Z,0
2017-12-21T01:02:12.194Z,0
2017-12-21T01:03:21.266Z,0
2017-12-21T01:04:30.331Z,0
2017-12-21T01:05:39.131Z,0
2017-12-21T01:06:47.930Z,0
2017-12-21T01:07:57.007Z,0
2017-12-21T01:09:05.809Z,0
2017-12-21T01:10:14.343Z,0
2017-12-21T01:11:22.926Z,0
2017-12-21T01:12:31.728Z,0
2017-12-21T01:13:40.801Z,0
2017-12-21T01:14:49.602Z,0
2017-12-21T01:15:58.400Z,0
2017-12-21T01:17:06.937Z,0
2017-12-21T01:18:15.737Z,0
2017-12-21T01:19:24.536Z,0
2017-12-21T01:20:33.070Z,0
2017-12-21T01:21:41.871Z,0
2017-12-21T01:22:50.721Z,0
2017-12-21T01:23:59.523Z,0
2017-12-21T01:25:08.058Z,0
2017-12-21T01:26:16.866Z,0
2017-12-21T01:27:25.395Z,0
2017-12-21T01:28:33.931Z,0
2017-12-21T01:29:42.466Z,0
2017-12-21T01:30:51.273Z,0
2017-12-21T01:32:00.072Z,0
2017-12-21T01:33:08.874Z,0
2017-12-21T01:34:17.468Z,0
2017-12-21T01:35:26.007Z,0
2017-12-21T01:36:35.341Z,0
2017-12-21T01:37:43.881Z,0
2017-12-21T01:38:52.416Z,0
2017-12-21T01:40:01.487Z,0
2017-12-21T01:41:10.293Z,0
2017-12-21T01:42:19.363Z,0
2017-12-21T01:43:27.899Z,0
2017-12-21T01:44:37.238Z,0
2017-12-21T01:45:45.826Z,0
2017-12-21T01:46:54.625Z,0
2017-12-21T01:48:03.430Z,0
2017-12-21T01:49:11.966Z,0
2017-12-21T01:50:20.767Z,0
2017-12-21T01:51:29.299Z,0
2017-12-21T01:52:37.835Z,0
2017-12-21T01:53:46.901Z,0
2017-12-21T01:54:55.435Z,0
2017-12-21T01:56:04.236Z,0
2017-12-21T01:57:13.101Z,0
2017-12-21T01:58:21.639Z,0
2017-12-21T01:59:30.438Z,0
2017-12-21T02:00:38.976Z,0
2017-12-21T02:01:47.789Z,0
2017-12-21T02:02:56.582Z,0
2017-12-21T02:04:05.648Z,0
2017-12-21T02:05:14.184Z,0
2017-12-21T02:06:23.418Z,0
2017-12-21T02:07:31.951Z,0
2017-12-21T02:08:41.072Z,0
2017-12-21T02:09:49.610Z,0
2017-12-21T02:10:58.944Z,0
2017-12-21T02:12:07.747Z,0
2017-12-21T02:13:16.819Z,0
2017-12-21T02:14:25.352Z,0
2017-12-21T02:15:34.426Z,0
2017-12-21T02:16:43.497Z,0
2017-12-21T02:17:52.032Z,0
2017-12-21T02:19:01.100Z,0
2017-12-21T02:20:09.637Z,0
2017-12-21T02:21:18.704Z,0
2017-12-21T02:22:27.506Z,0
2017-12-21T02:23:36.309Z,0
2017-12-21T02:24:45.111Z,0
2017-12-21T02:25:53.706Z,0
2017-12-21T02:27:02.238Z,0
2017-12-21T02:28:10.772Z,0
2017-12-21T02:29:19.572Z,0
2017-12-21T02:30:28.377Z,0
2017-12-21T02:31:36.960Z,0
2017-12-21T02:32:45.772Z,0
2017-12-21T02:33:54.570Z,0
2017-12-21T02:35:03.637Z,0
2017-12-21T02:36:12.174Z,0
2017-12-21T02:37:20.760Z,0
2017-12-21T02:38:29.838Z,0
2017-12-21T02:39:38.634Z,0
2017-12-21T02:40:47.712Z,0
2017-12-21T02:41:56.244Z,0
2017-12-21T02:43:04.780Z,0
2017-12-21T02:44:13.320Z,0
2017-12-21T02:45:21.856Z,0
2017-12-21T02:46:30.391Z,0
2017-12-21T02:47:39.190Z,0
2017-12-21T02:48:48.046Z,0
2017-12-21T02:49:57.123Z,0
2017-12-21T02:51:05.930Z,0
2017-12-21T02:52:14.464Z,0
2017-12-21T02:53:23.538Z,0
2017-12-21T02:54:32.604Z,0
2017-12-21T02:55:41.408Z,0
2017-12-21T02:56:50.216Z,0
2017-12-21T02:57:58.753Z,0
2017-12-21T02:59:07.286Z,0
2017-12-21T03:00:16.141Z,0
2017-12-21T03:01:24.680Z,0
2017-12-21T03:02:33.484Z,0
2017-12-21T03:03:42.021Z,0
2017-12-21T03:04:50.825Z,0
2017-12-21T03:05:59.413Z,0
2017-12-21T03:07:08.217Z,0
2017-12-21T03:08:17.553Z,0
2017-12-21T03:09:26.634Z,0
2017-12-21T03:10:35.432Z,0
2017-12-21T03:11:44.236Z,0
2017-12-21T03:12:53.312Z,0
2017-12-21T03:14:02.378Z,0
2017-12-21T03:15:10.916Z,0
2017-12-21T03:16:19.990Z,0
2017-12-21T03:17:28.529Z,0
2017-12-21T03:18:37.597Z,0
2017-12-21T03:19:46.411Z,0
2017-12-21T03:20:54.950Z,0
2017-12-21T03:22:04.021Z,0
2017-12-21T03:23:12.615Z,0
2017-12-21T03:24:21.692Z,0
2017-12-21T03:25:30.497Z,0
2017-12-21T03:26:39.029Z,0
2017-12-21T03:27:48.101Z,0
2017-12-21T03:28:57.173Z,0
2017-12-21T03:30:05.980Z,0
2017-12-21T03:31:14.787Z,0
2017-12-21T03:32:23.319Z,0
2017-12-21T03:33:32.386Z,0
2017-12-21T03:34:40.922Z,0
2017-12-21T03:35:49.463Z,0
2017-12-21T03:36:58.793Z,0
2017-12-21T03:38:07.594Z,0
2017-12-21T03:39:16.128Z,0
2017-12-21T03:40:24.982Z,0
2017-12-21T03:41:34.319Z,0
2017-12-21T03:42:43.388Z,0
2017-12-21T03:43:51.924Z,0
2017-12-21T03:45:00.459Z,0
2017-12-21T03:46:10.193Z,0
2017-12-21T03:47:18.731Z,0
2017-12-21T03:48:28.069Z,0
2017-12-21T03:49:37.138Z,0
2017-12-21T03:50:45.950Z,0
2017-12-21T03:51:55.021Z,0
2017-12-21T03:53:03.556Z,0
2017-12-21T03:54:12.361Z,0
2017-12-21T03:55:21.493Z,0
2017-12-21T03:56:30.566Z,0
2017-12-21T03:57:39.418Z,0
2017-12-21T03:58:47.952Z,0
2017-12-21T03:59:56.489Z,0
2017-12-21T04:01:05.025Z,0
2017-12-21T04:02:14.097Z,0
2017-12-21T04:03:22.632Z,0
2017-12-21T04:04:31.707Z,0
2017-12-21T04:05:40.504Z,0
2017-12-21T04:06:49.305Z,0
2017-12-21T04:07:58.108Z,0
2017-12-21T04:09:07.493Z,0
2017-12-21T04:10:16.293Z,0
2017-12-21T04:11:25.627Z,0
2017-12-21T04:12:34.696Z,0
2017-12-21T04:13:44.051Z,0
2017-12-21T04:14:53.007Z,0
2017-12-21T04:16:01.544Z,0
2017-12-21T04:17:10.078Z,0
2017-12-21T04:18:18.614Z,0
2017-12-21T04:19:27.416Z,0
2017-12-21T04:20:36.273Z,0
2017-12-21T04:21:45.346Z,0
2017-12-21T04:22:53.880Z,0
2017-12-21T04:24:02.681Z,0
2017-12-21T04:25:11.746Z,0
2017-12-21T04:26:20.331Z,0
2017-12-21T04:27:28.871Z,0
2017-12-21T04:28:37.403Z,0
2017-12-21T04:29:45.937Z,0
2017-12-21T04:30:54.793Z,0
2017-12-21T04:32:04.134Z,0
2017-12-21T04:33:12.668Z,0
2017-12-21T04:34:21.473Z,0
2017-12-21T04:35:30.811Z,0
2017-12-21T04:36:39.344Z,0
2017-12-21T04:37:48.200Z,0
2017-12-21T04:38:56.733Z,0
2017-12-21T04:40:05.270Z,0
2017-12-21T04:41:14.339Z,0
2017-12-21T04:42:23.674Z,0
2017-12-21T04:43:32.209Z,0
2017-12-21T04:44:40.742Z,0
2017-12-21T04:45:50.089Z,0
2017-12-21T04:46:58.623Z,0
2017-12-21T04:48:07.691Z,0
2017-12-21T04:49:16.760Z,0
2017-12-21T04:50:25.561Z,0
2017-12-21T04:51:34.892Z,0
2017-12-21T04:52:43.426Z,0
2017-12-21T04:53:52.225Z,0
2017-12-21T04:55:01.078Z,0
2017-12-21T04:56:09.611Z,0
2017-12-21T04:57:18.412Z,0
2017-12-21T04:58:27.217Z,0
2017-12-21T04:59:36.296Z,0
2017-12-21T05:00:44.830Z,0
2017-12-21T05:01:53.632Z,0
2017-12-21T05:03:02.451Z,0
2017-12-21T05:04:11.256Z,0
2017-12-21T05:05:20.059Z,0
2017-12-21T05:06:28.919Z,0
2017-12-21T05:07:37.721Z,0
2017-12-21T05:08:46.525Z,0
2017-12-21T05:09:55.324Z,0
2017-12-21T05:11:04.390Z,0
2017-12-21T05:12:12.931Z,0
2017-12-21T05:13:21.732Z,0
2017-12-21T05:14:30.807Z,0
2017-12-21T05:15:39.636Z,0
2017-12-21T05:16:48.170Z,0
2017-12-21T05:17:57.556Z,0
2017-12-21T05:19:06.360Z,0
2017-12-21T05:20:14.898Z,0
2017-12-21T05:21:23.965Z,0
2017-12-21T05:22:32.767Z,0
2017-12-21T05:23:41.833Z,0
2017-12-21T05:24:50.369Z,0
2017-12-21T05:25:59.166Z,0
2017-12-21T05:27:07.967Z,0
2017-12-21T05:28:16.503Z,0
2017-12-21T05:29:25.089Z,0
2017-12-21T05:30:33.891Z,0
2017-12-21T05:31:42.424Z,0
2017-12-21T05:32:50.961Z,0
2017-12-21T05:33:59.762Z,0
2017-12-21T05:35:08.296Z,0
2017-12-21T05:36:17.104Z,0
2017-12-21T05:37:25.908Z,0
2017-12-21T05:38:34.443Z,0
2017-12-21T05:39:42.981Z,0
2017-12-21T05:40:51.836Z,0
2017-12-21T05:42:00.662Z,0
2017-12-21T05:43:09.167Z,0
2017-12-21T05:44:18.503Z,0
2017-12-21T05:45:27.315Z,0
2017-12-21T05:46:35.852Z,0
2017-12-21T05:47:44.650Z,0
2017-12-21T05:48:53.186Z,0
2017-12-21T05:50:01.997Z,0
2017-12-21T05:51:10.521Z,0
2017-12-21T05:52:19.376Z,0
2017-12-21T05:53:28.183Z,0
2017-12-21T05:54:36.713Z,0
2017-12-21T05:55:45.513Z,0
2017-12-21T05:56:54.048Z,0
2017-12-21T05:58:02.586Z,0
2017-12-21T05:59:11.656Z,0
2017-12-21T06:00:20.460Z,0
2017-12-21T06:01:28.998Z,0
2017-12-21T06:02:37.803Z,0
2017-12-21T06:03:46.915Z,0
2017-12-21T06:04:55.451Z,0
2017-12-21T06:06:04.259Z,0
2017-12-21T06:07:13.061Z,0
2017-12-21T06:08:21.597Z,0
2017-12-21T06:09:30.668Z,0
2017-12-21T06:10:39.203Z,0
2017-12-21T06:11:48.003Z,0
2017-12-21T06:12:56.806Z,0
2017-12-21T06:14:05.388Z,0
2017-12-21T06:15:14.190Z,0
2017-12-21T06:16:23.280Z,0
2017-12-21T06:17:32.353Z,0
2017-12-21T06:18:41.157Z,0
2017-12-21T06:19:49.957Z,0
2017-12-21T06:20:59.291Z,0
2017-12-21T06:22:07.828Z,0
2017-12-21T06:23:16.633Z,0
2017-12-21T06:24:25.435Z,0
2017-12-21T06:25:34.016Z,0
2017-12-21T06:26:42.552Z,0
2017-12-21T06:27:51.886Z,0
2017-12-21T06:29:00.691Z,0
2017-12-21T06:30:09.762Z,0
2017-12-21T06:31:18.827Z,0
2017-12-21T06:32:27.362Z,0
2017-12-21T06:33:36.166Z,0
2017-12-21T06:34:44.979Z,0
2017-12-21T06:35:54.048Z,0
2017-12-21T06:37:02.635Z,0
2017-12-21T06:38:11.714Z,0
2017-12-21T06:39:20.529Z,0
2017-12-21T06:40:29.606Z,0
2017-12-21T06:41:38.676Z,0
2017-12-21T06:42:47.484Z,0
2017-12-21T06:43:56.024Z,0
2017-12-21T06:45:05.097Z,0
2017-12-21T06:46:14.429Z,0
2017-12-21T06:47:23.499Z,0
2017-12-21T06:48:32.360Z,0
2017-12-21T06:49:40.898Z,0
2017-12-21T06:50:49.429Z,0
2017-12-21T06:51:57.964Z,0
2017-12-21T06:53:07.035Z,0
2017-12-21T06:54:15.884Z,0
2017-12-21T06:55:24.963Z,0
2017-12-21T06:56:33.764Z,0
2017-12-21T06:57:42.612Z,0
2017-12-21T06:58:51.426Z,0
2017-12-21T07:00:00.545Z,0
2017-12-21T07:01:09.346Z,0
2017-12-21T07:02:18.684Z,0
2017-12-21T07:03:27.489Z,0
2017-12-21T07:04:36.023Z,44
2017-12-21T07:05:44.566Z,60
2017-12-21T07:06:53.897Z,68
2017-12-21T07:08:02.435Z,76
2017-12-21T07:09:11.503Z,80
2017-12-21T07:10:20.305Z,80
2017-12-21T07:11:28.890Z,80
2017-12-21T07:12:37.961Z,84
2017-12-21T07:13:47.031Z,84
2017-12-21T07:14:55.853Z,84
2017-12-21T07:16:04.927Z,88
2017-12-21T07:17:14.047Z,88
2017-12-21T07:18:22.848Z,84
2017-12-21T07:19:31.650Z,88
2017-12-21T07:20:40.182Z,84
2017-12-21T07:21:48.985Z,92
2017-12-21T07:22:57.788Z,92
2017-12-21T07:24:06.330Z,92
2017-12-21T07:25:15.133Z,92
2017-12-21T07:26:23.935Z,96
2017-12-21T07:27:33.002Z,100
2017-12-21T07:28:41.862Z,100
2017-12-21T07:29:50.397Z,104
2017-12-21T07:30:59.737Z,108
2017-12-21T07:32:08.266Z,112
2017-12-21T07:33:17.124Z,112
2017-12-21T07:34:26.295Z,112
2017-12-21T07:35:35.098Z,108
2017-12-21T07:36:44.173Z,116
2017-12-21T07:37:52.709Z,124
2017-12-21T07:39:01.778Z,120
2017-12-21T07:40:10.364Z,128
2017-12-21T07:41:19.165Z,136
2017-12-21T07:42:27.971Z,144
2017-12-21T07:43:37.041Z,140
2017-12-21T07:44:46.132Z,156
2017-12-21T07:45:54.933Z,156
2017-12-21T07:47:03.736Z,164
2017-12-21T07:48:12.538Z,172
2017-12-21T07:49:21.338Z,192
2017-12-21T07:50:30.140Z,200
2017-12-21T07:51:39.525Z,196
2017-12-21T07:52:48.606Z,200
2017-12-21T07:53:57.426Z,204
2017-12-21T07:55:06.236Z,204
2017-12-21T07:56:14.780Z,220
2017-12-21T07:57:23.864Z,236
2017-12-21T07:58:32.667Z,280
2017-12-21T07:59:41.767Z,304
2017-12-21T08:00:50.307Z,296
2017-12-21T08:01:59.109Z,316
2017-12-21T08:03:07.909Z,364
2017-12-21T08:04:16.706Z,328
2017-12-21T08:05:25.783Z,344
2017-12-21T08:06:34.860Z,328
2017-12-21T08:07:43.927Z,328
2017-12-21T08:08:53.002Z,356
2017-12-21T08:10:01.540Z,340
2017-12-21T08:11:10.609Z,332
2017-12-21T08:12:19.141Z,332
2017-12-21T08:13:27.944Z,348
2017-12-21T08:14:37.013Z,380
2017-12-21T08:15:46.081Z,380
2017-12-21T08:16:54.616Z,424
2017-12-21T08:18:03.155Z,516
2017-12-21T08:19:11.693Z,588
2017-12-21T08:20:20.226Z,660
2017-12-21T08:21:29.296Z,756
2017-12-21T08:22:37.846Z,764
2017-12-21T08:23:46.632Z,636
2017-12-21T08:24:55.436Z,728
2017-12-21T08:26:04.253Z,704
2017-12-21T08:27:13.321Z,660
2017-12-21T08:28:22.389Z,700
2017-12-21T08:29:31.192Z,712
2017-12-21T08:30:39.994Z,688
2017-12-21T08:31:49.067Z,720
2017-12-21T08:32:57.870Z,776
2017-12-21T08:34:06.673Z,784
2017-12-21T08:35:15.943Z,788
2017-12-21T08:36:25.060Z,752
2017-12-21T08:37:33.603Z,724
2017-12-21T08:38:42.404Z,680
2017-12-21T08:39:51.216Z,660
2017-12-21T08:41:00.287Z,696
2017-12-21T08:42:09.789Z,728
2017-12-21T08:43:18.592Z,692
2017-12-21T08:44:27.415Z,624
2017-12-21T08:45:36.218Z,620
2017-12-21T08:46:44.761Z,584
2017-12-21T08:47:53.611Z,628
2017-12-21T08:49:02.423Z,636
2017-12-21T08:50:10.960Z,612
2017-12-21T08:51:19.765Z,620
2017-12-21T08:52:28.568Z,640
2017-12-21T08:53:37.377Z,652
2017-12-21T08:54:46.186Z,628
2017-12-21T08:55:55.253Z,636
2017-12-21T08:57:03.792Z,636
2017-12-21T08:58:12.596Z,660
2017-12-21T08:59:21.446Z,660
2017-12-21T09:00:29.984Z,672
2017-12-21T09:01:39.061Z,680
2017-12-21T09:02:47.600Z,696
2017-12-21T09:03:56.135Z,740
2017-12-21T09:05:04.943Z,720
2017-12-21T09:06:13.480Z,760
2017-12-21T09:07:22.286Z,752
2017-12-21T09:08:31.357Z,732
2017-12-21T09:09:40.160Z,744
2017-12-21T09:10:48.963Z,740
2017-12-21T09:11:57.764Z,724
2017-12-21T09:13:06.564Z,760
2017-12-21T09:14:15.918Z,792
2017-12-21T09:15:24.985Z,844
2017-12-21T09:16:33.838Z,928
2017-12-21T09:17:42.381Z,940
2017-12-21T09:18:50.910Z,968
2017-12-21T09:20:00.140Z,932
2017-12-21T09:21:09.089Z,896
2017-12-21T09:22:18.207Z,884
2017-12-21T09:23:27.120Z,888
2017-12-21T09:24:35.922Z,1024
2017-12-21T09:25:44.722Z,1028
2017-12-21T09:26:53.842Z,1032
2017-12-21T09:28:02.918Z,1076
2017-12-21T09:29:11.461Z,1064
2017-12-21T09:30:20.529Z,992
2017-12-21T09:31:29.065Z,964
2017-12-21T09:32:37.870Z,1020
2017-12-21T09:33:47.206Z,1004
2017-12-21T09:34:56.013Z,1024
2017-12-21T09:36:05.350Z,1016
2017-12-21T09:37:14.155Z,1020
2017-12-21T09:38:22.697Z,952
2017-12-21T09:39:31.289Z,984
2017-12-21T09:40:39.825Z,1044
2017-12-21T09:41:48.365Z,1096
2017-12-21T09:42:56.903Z,1132
2017-12-21T09:44:05.435Z,1152
2017-12-21T09:45:14.237Z,1168
2017-12-21T09:46:23.039Z,1176
2017-12-21T09:47:31.843Z,1236
2017-12-21T09:48:40.913Z,1260
2017-12-21T09:49:49.981Z,1400
2017-12-21T09:50:59.163Z,1348
2017-12-21T09:52:08.230Z,1448
2017-12-21T09:53:17.301Z,1624
2017-12-21T09:54:25.840Z,1816
2017-12-21T09:55:34.910Z,1916
2017-12-21T09:56:44.036Z,1752
2017-12-21T09:57:53.109Z,1856
2017-12-21T09:59:01.646Z,2200
2017-12-21T10:00:10.450Z,2348
2017-12-21T10:01:20.071Z,2356
2017-12-21T10:02:29.417Z,2216
2017-12-21T10:03:38.754Z,2660
2017-12-21T10:04:47.559Z,2676
2017-12-21T10:05:56.627Z,2748
2017-12-21T10:07:05.432Z,2672
2017-12-21T10:08:13.971Z,2768
2017-12-21T10:09:23.038Z,2688
2017-12-21T10:10:32.112Z,3072
2017-12-21T10:11:40.648Z,2812
2017-12-21T10:12:49.716Z,3256
2017-12-21T10:13:59.631Z,3284
2017-12-21T10:15:08.168Z,3396
2017-12-21T10:16:17.506Z,3292
2017-12-21T10:17:26.843Z,3444
2017-12-21T10:18:35.644Z,3596
2017-12-21T10:19:44.179Z,3316
2017-12-21T10:20:52.997Z,3148
2017-12-21T10:22:01.541Z,3076
2017-12-21T10:23:10.671Z,2876
2017-12-21T10:24:19.522Z,2656
2017-12-21T10:25:28.323Z,2480
2017-12-21T10:26:37.126Z,2184
2017-12-21T10:27:45.929Z,2152
2017-12-21T10:28:54.467Z,2344
2017-12-21T10:30:03.158Z,2312
2017-12-21T10:31:11.747Z,2456
2017-12-21T10:32:20.551Z,2600
2017-12-21T10:33:29.361Z,2416
2017-12-21T10:34:38.188Z,2348
2017-12-21T10:35:47.527Z,2240
2017-12-21T10:36:56.597Z,2240
2017-12-21T10:38:05.133Z,2252
2017-12-21T10:39:14.211Z,2192
2017-12-21T10:40:22.884Z,2300
2017-12-21T10:41:31.498Z,2100
2017-12-21T10:42:40.621Z,1972
2017-12-21T10:43:49.426Z,2028
2017-12-21T10:44:58.500Z,2096
2017-12-21T10:46:07.958Z,2040
2017-12-21T10:47:17.034Z,1984
2017-12-21T10:48:25.576Z,2116
2017-12-21T10:49:34.382Z,2056
2017-12-21T10:50:43.454Z,2136
2017-12-21T10:51:51.990Z,2304
2017-12-21T10:53:01.072Z,2396
2017-12-21T10:54:10.143Z,2700
2017-12-21T10:55:19.213Z,2700
2017-12-21T10:56:28.590Z,2652
2017-12-21T10:57:37.396Z,2748
2017-12-21T10:58:46.204Z,2584
2017-12-21T10:59:55.324Z,2260
2017-12-21T11:01:04.127Z,2184
2017-12-21T11:02:12.929Z,2008
2017-12-21T11:03:21.461Z,1816
2017-12-21T11:04:30.529Z,1816
2017-12-21T11:05:39.599Z,1652
2017-12-21T11:06:48.134Z,1648
2017-12-21T11:07:56.940Z,1596
2017-12-21T11:09:05.476Z,1608
2017-12-21T11:10:14.016Z,1632
2017-12-21T11:11:22.601Z,1700
2017-12-21T11:12:31.143Z,1660
2017-12-21T11:13:39.683Z,1796
2017-12-21T11:14:48.937Z,1692
2017-12-21T11:15:58.014Z,1628
2017-12-21T11:17:07.278Z,1636
2017-12-21T11:18:16.477Z,1684
2017-12-21T11:19:25.555Z,1848
2017-12-21T11:20:34.626Z,2012
2017-12-21T11:21:43.193Z,2220
2017-12-21T11:22:52.083Z,2140
2017-12-21T11:24:00.891Z,2232
2017-12-21T11:25:09.432Z,2184
2017-12-21T11:26:18.508Z,2588
2017-12-21T11:27:27.585Z,2336
2017-12-21T11:28:36.404Z,2316
2017-12-21T11:29:45.209Z,2348
2017-12-21T11:30:54.011Z,2704
2017-12-21T11:32:03.080Z,2984
2017-12-21T11:33:11.883Z,3196
2017-12-21T11:34:20.481Z,3628
2017-12-21T11:35:29.583Z,3416
2017-12-21T11:36:38.922Z,2836
2017-12-21T11:37:47.724Z,2540
2017-12-21T11:38:56.530Z,2568
2017-12-21T11:40:05.335Z,2620
2017-12-21T11:41:14.141Z,2592
2017-12-21T11:42:22.675Z,2492
2017-12-21T11:43:31.477Z,2396
2017-12-21T11:44:40.282Z,2504
2017-12-21T11:45:49.084Z,2100
2017-12-21T11:46:57.897Z,2084
2017-12-21T11:48:06.439Z,2136
2017-12-21T11:49:14.976Z,2128
2017-12-21T11:50:24.041Z,2132
2017-12-21T11:51:33.175Z,2132
2017-12-21T11:52:42.248Z,2164
2017-12-21T11:53:51.061Z,2036
2017-12-21T11:55:00.130Z,2104
2017-12-21T11:56:09.467Z,2364
2017-12-21T11:57:18.269Z,1876
2017-12-21T11:58:27.079Z,1828
2017-12-21T11:59:35.889Z,1800
2017-12-21T12:00:44.425Z,1860
2017-12-21T12:01:52.959Z,2044
2017-12-21T12:03:02.032Z,1948
2017-12-21T12:04:11.100Z,2088
2017-12-21T12:05:19.910Z,1944
2017-12-21T12:06:28.713Z,1860
2017-12-21T12:07:37.255Z,1884
2017-12-21T12:08:46.376Z,1992
2017-12-21T12:09:55.213Z,1996
2017-12-21T12:11:03.981Z,2112
2017-12-21T12:12:13.070Z,2364
2017-12-21T12:13:22.151Z,1976
2017-12-21T12:14:30.952Z,1972
2017-12-21T12:15:40.027Z,1792
2017-12-21T12:16:49.306Z,1940
2017-12-21T12:17:57.847Z,1676
2017-12-21T12:19:06.650Z,1692
2017-12-21T12:20:15.721Z,1764
2017-12-21T12:21:24.525Z,1488
2017-12-21T12:22:33.321Z,1516
2017-12-21T12:23:41.860Z,1780
2017-12-21T12:24:50.672Z,1696
2017-12-21T12:25:59.472Z,1636
2017-12-21T12:27:08.008Z,1536
2017-12-21T12:28:16.543Z,1564
2017-12-21T12:29:25.632Z,1828
2017-12-21T12:30:34.701Z,1816
2017-12-21T12:31:44.048Z,1752
2017-12-21T12:32:52.576Z,1664
2017-12-21T12:34:01.646Z,1684
2017-12-21T12:35:10.713Z,1672
2017-12-21T12:36:19.250Z,1560
2017-12-21T12:37:27.785Z,1536
2017-12-21T12:38:37.127Z,1512
2017-12-21T12:39:45.941Z,1624
2017-12-21T12:40:54.484Z,1544
2017-12-21T12:42:03.817Z,1548
2017-12-21T12:43:12.352Z,1304
2017-12-21T12:44:20.889Z,1124
2017-12-21T12:45:29.431Z,1076
2017-12-21T12:46:37.964Z,1016
2017-12-21T12:47:47.035Z,956
2017-12-21T12:48:56.371Z,976
2017-12-21T12:50:05.176Z,936
2017-12-21T12:51:14.252Z,1008
2017-12-21T12:52:23.313Z,1032
2017-12-21T12:53:31.848Z,952
2017-12-21T12:54:40.384Z,976
2017-12-21T12:55:49.455Z,1048
2017-12-21T12:56:58.532Z,1112
2017-12-21T12:58:07.334Z,1204
2017-12-21T12:59:16.413Z,1168
2017-12-21T13:00:24.988Z,1052
2017-12-21T13:01:34.064Z,1052
2017-12-21T13:02:42.868Z,1076
2017-12-21T13:03:51.404Z,988
2017-12-21T13:05:00.206Z,952
2017-12-21T13:06:08.745Z,956
2017-12-21T13:07:17.817Z,1044
2017-12-21T13:08:26.619Z,1052
2017-12-21T13:09:35.424Z,952
2017-12-21T13:10:44.225Z,988
2017-12-21T13:11:53.308Z,920
2017-12-21T13:13:01.846Z,928
2017-12-21T13:14:10.384Z,980
2017-12-21T13:15:19.197Z,1000
2017-12-21T13:16:28.053Z,1108
2017-12-21T13:17:36.859Z,1144
2017-12-21T13:18:45.969Z,1148
2017-12-21T13:19:55.321Z,1180
2017-12-21T13:21:03.967Z,1140
2017-12-21T13:22:12.772Z,1252
2017-12-21T13:23:21.928Z,1200
2017-12-21T13:24:31.081Z,1164
2017-12-21T13:25:40.152Z,1132
2017-12-21T13:26:48.699Z,1200
2017-12-21T13:27:57.234Z,1292
2017-12-21T13:29:06.093Z,1352
2017-12-21T13:30:14.624Z,1344
2017-12-21T13:31:23.430Z,1364
2017-12-21T13:32:31.970Z,1376
2017-12-21T13:33:40.772Z,1300
2017-12-21T13:34:49.633Z,1272
2017-12-21T13:35:58.435Z,1192
2017-12-21T13:37:06.976Z,1148
2017-12-21T13:38:15.563Z,1140
2017-12-21T13:39:24.688Z,1132
2017-12-21T13:40:33.223Z,1164
2017-12-21T13:41:42.298Z,1156
2017-12-21T13:42:50.835Z,1264
2017-12-21T13:43:59.641Z,1296
2017-12-21T13:45:08.447Z,1184
2017-12-21T13:46:17.302Z,1064
2017-12-21T13:47:26.376Z,972
2017-12-21T13:48:34.909Z,940
2017-12-21T13:49:43.444Z,952
2017-12-21T13:50:52.249Z,952
2017-12-21T13:52:01.054Z,880
2017-12-21T13:53:09.860Z,828
2017-12-21T13:54:19.017Z,832
2017-12-21T13:55:27.552Z,940
2017-12-21T13:56:36.891Z,856
2017-12-21T13:57:45.746Z,760
2017-12-21T13:58:54.822Z,760
2017-12-21T14:00:03.431Z,684
2017-12-21T14:01:12.263Z,716
2017-12-21T14:02:20.803Z,852
2017-12-21T14:03:29.875Z,940
2017-12-21T14:04:38.411Z,876
2017-12-21T14:05:47.219Z,792
2017-12-21T14:06:55.758Z,684
2017-12-21T14:08:04.561Z,784
2017-12-21T14:09:13.635Z,780
2017-12-21T14:10:22.493Z,676
2017-12-21T14:11:31.338Z,708
2017-12-21T14:12:39.873Z,716
2017-12-21T14:13:48.411Z,824
2017-12-21T14:14:58.034Z,828
2017-12-21T14:16:06.569Z,740
2017-12-21T14:17:15.105Z,724
2017-12-21T14:18:24.244Z,648
2017-12-21T14:19:33.439Z,692
2017-12-21T14:20:42.710Z,644
2017-12-21T14:21:52.344Z,624
2017-12-21T14:23:01.559Z,608
2017-12-21T14:24:11.260Z,564
2017-12-21T14:25:20.338Z,560
2017-12-21T14:26:29.146Z,596
2017-12-21T14:27:38.490Z,592
2017-12-21T14:28:47.305Z,572
2017-12-21T14:29:56.105Z,516
2017-12-21T14:31:04.640Z,496
2017-12-21T14:32:13.228Z,496
2017-12-21T14:33:22.296Z,528
2017-12-21T14:34:31.103Z,532
2017-12-21T14:35:39.909Z,488
2017-12-21T14:36:48.982Z,444
2017-12-21T14:37:58.345Z,424
2017-12-21T14:39:07.947Z,400
2017-12-21T14:40:16.485Z,396
2017-12-21T14:41:25.285Z,352
2017-12-21T14:42:34.090Z,332
2017-12-21T14:43:43.214Z,352
2017-12-21T14:44:52.036Z,344
2017-12-21T14:46:00.831Z,332
2017-12-21T14:47:09.369Z,292
2017-12-21T14:48:18.446Z,276
2017-12-21T14:49:27.296Z,268
2017-12-21T14:50:36.368Z,256
2017-12-21T14:51:45.181Z,240
2017-12-21T14:52:53.986Z,236
2017-12-21T14:54:02.528Z,228
2017-12-21T14:55:11.071Z,232
2017-12-21T14:56:19.871Z,224
2017-12-21T14:57:28.674Z,224
2017-12-21T14:58:37.475Z,220
2017-12-21T14:59:46.013Z,216
2017-12-21T15:00:54.553Z,204
2017-12-21T15:02:03.088Z,212
2017-12-21T15:03:11.623Z,220
2017-12-21T15:04:20.162Z,216
2017-12-21T15:05:28.965Z,200
2017-12-21T15:06:37.770Z,204
2017-12-21T15:07:46.573Z,184
2017-12-21T15:08:55.111Z,160
2017-12-21T15:10:04.184Z,160
2017-12-21T15:11:12.720Z,156
2017-12-21T15:12:21.573Z,148
2017-12-21T15:13:30.644Z,148
2017-12-21T15:14:39.180Z,144
2017-12-21T15:15:47.720Z,132
2017-12-21T15:16:56.799Z,128
2017-12-21T15:18:05.611Z,124
2017-12-21T15:19:14.691Z,128
2017-12-21T15:20:23.488Z,136
2017-12-21T15:21:32.029Z,124
2017-12-21T15:22:40.565Z,116
2017-12-21T15:23:49.368Z,112
2017-12-21T15:24:57.903Z,120
2017-12-21T15:26:06.446Z,112
2017-12-21T15:27:15.798Z,116
2017-12-21T15:28:24.604Z,116
2017-12-21T15:29:33.407Z,116
2017-12-21T15:30:42.476Z,108
2017-12-21T15:31:51.551Z,104
2017-12-21T15:33:00.096Z,104
2017-12-21T15:34:08.633Z,104
2017-12-21T15:35:18.041Z,96
2017-12-21T15:36:27.133Z,100
2017-12-21T15:37:35.935Z,100
2017-12-21T15:38:44.739Z,100
2017-12-21T15:39:53.806Z,96
2017-12-21T15:41:02.876Z,96
2017-12-21T15:42:11.679Z,92
2017-12-21T15:43:20.753Z,88
2017-12-21T15:44:29.562Z,88
2017-12-21T15:45:38.104Z,88
2017-12-21T15:46:46.914Z,84
2017-12-21T15:47:55.726Z,84
2017-12-21T15:49:04.416Z,80
2017-12-21T15:50:13.275Z,80
2017-12-21T15:51:26.127Z,80
2017-12-21T15:52:34.944Z,76
2017-12-21T15:53:43.486Z,76
2017-12-21T15:54:52.036Z,76
2017-12-21T15:56:00.845Z,76
2017-12-21T15:57:09.647Z,76
2017-12-21T15:58:18.473Z,76
2017-12-21T15:59:27.275Z,76
2017-12-21T16:00:36.079Z,76
2017-12-21T16:01:45.148Z,76
2017-12-21T16:02:53.683Z,76
2017-12-21T16:04:02.412Z,76
2017-12-21T16:05:10.948Z,76
2017-12-21T16:06:19.757Z,76
2017-12-21T16:07:28.297Z,76
2017-12-21T16:08:36.839Z,76
2017-12-21T16:09:45.394Z,76